sensor_id;sensor_type;location;lat;lon;timestamp;pressure;altitude;pressure_sealevel;temperature;humidity
75039;BME280;63609;49.992;14.512;2023-12-14T00:01:53;96822.13;;;6.24;66.77
75039;BME280;63609;49.992;14.512;2023-12-14T00:04:20;96826.72;;;6.22;66.70
75039;BME280;63609;49.992;14.512;2023-12-14T00:06:50;96834.31;;;6.17;66.93
75039;BME280;63609;49.992;14.512;2023-12-14T00:09:17;96838.78;;;6.16;66.46
75039;BME280;63609;49.992;14.512;2023-12-14T00:11:44;96828.19;;;6.16;66.90
75039;BME280;63609;49.992;14.512;2023-12-14T00:14:11;96829.25;;;6.23;67.09
75039;BME280;63609;49.992;14.512;2023-12-14T00:16:38;96833.84;;;6.21;67.46
75039;BME280;63609;49.992;14.512;2023-12-14T00:19:04;96831.50;;;6.18;67.40
75039;BME280;63609;49.992;14.512;2023-12-14T00:21:31;96832.75;;;6.06;67.69
75039;BME280;63609;49.992;14.512;2023-12-14T00:23:58;96834.25;;;6.08;68.02
75039;BME280;63609;49.992;14.512;2023-12-14T00:26:25;96837.13;;;6.15;67.63
75039;BME280;63609;49.992;14.512;2023-12-14T00:28:51;96840.97;;;6.21;67.40
75039;BME280;63609;49.992;14.512;2023-12-14T00:31:27;96844.91;;;6.17;67.06
75039;BME280;63609;49.992;14.512;2023-12-14T00:33:54;96843.34;;;6.06;67.08
75039;BME280;63609;49.992;14.512;2023-12-14T00:36:20;96849.84;;;6.12;67.61
75039;BME280;63609;49.992;14.512;2023-12-14T00:38:47;96849.16;;;6.09;67.64
75039;BME280;63609;49.992;14.512;2023-12-14T00:41:14;96849.31;;;5.90;68.30
75039;BME280;63609;49.992;14.512;2023-12-14T00:43:41;96853.25;;;5.68;69.10
75039;BME280;63609;49.992;14.512;2023-12-14T00:46:07;96860.03;;;5.53;70.06
75039;BME280;63609;49.992;14.512;2023-12-14T00:48:34;96864.53;;;5.88;68.89
75039;BME280;63609;49.992;14.512;2023-12-14T00:51:01;96873.56;;;5.95;68.00
75039;BME280;63609;49.992;14.512;2023-12-14T00:53:28;96876.44;;;6.02;68.16
75039;BME280;63609;49.992;14.512;2023-12-14T00:55:55;96877.50;;;5.91;68.68
75039;BME280;63609;49.992;14.512;2023-12-14T00:58:22;96883.00;;;6.16;68.36
75039;BME280;63609;49.992;14.512;2023-12-14T01:03:31;96897.00;;;5.72;70.64
75039;BME280;63609;49.992;14.512;2023-12-14T01:05:59;96897.00;;;5.90;69.54
75039;BME280;63609;49.992;14.512;2023-12-14T01:08:25;96906.38;;;5.85;69.90
75039;BME280;63609;49.992;14.512;2023-12-14T01:10:52;96907.91;;;5.87;69.70
75039;BME280;63609;49.992;14.512;2023-12-14T01:13:19;96912.66;;;5.84;69.68
75039;BME280;63609;49.992;14.512;2023-12-14T01:15:46;96914.94;;;5.78;69.64
75039;BME280;63609;49.992;14.512;2023-12-14T01:18:12;96911.34;;;5.97;69.14
75039;BME280;63609;49.992;14.512;2023-12-14T01:20:39;96923.22;;;6.11;68.19
75039;BME280;63609;49.992;14.512;2023-12-14T01:23:06;96926.22;;;6.16;68.63
75039;BME280;63609;49.992;14.512;2023-12-14T01:25:36;96921.59;;;6.18;68.32
75039;BME280;63609;49.992;14.512;2023-12-14T01:28:03;96927.38;;;6.31;68.09
75039;BME280;63609;49.992;14.512;2023-12-14T01:30:30;96929.81;;;6.25;67.78
75039;BME280;63609;49.992;14.512;2023-12-14T01:32:56;96926.78;;;6.02;68.91
75039;BME280;63609;49.992;14.512;2023-12-14T01:35:23;96922.09;;;5.96;69.59
75039;BME280;63609;49.992;14.512;2023-12-14T01:37:50;96921.81;;;5.89;69.91
75039;BME280;63609;49.992;14.512;2023-12-14T01:40:19;96924.25;;;5.83;70.08
75039;BME280;63609;49.992;14.512;2023-12-14T01:42:47;96919.84;;;5.73;70.26
75039;BME280;63609;49.992;14.512;2023-12-14T01:45:13;96924.06;;;5.66;70.67
75039;BME280;63609;49.992;14.512;2023-12-14T01:47:43;96932.03;;;5.84;69.96
75039;BME280;63609;49.992;14.512;2023-12-14T01:50:10;96931.16;;;5.93;69.73
75039;BME280;63609;49.992;14.512;2023-12-14T01:52:37;96932.22;;;6.00;69.13
75039;BME280;63609;49.992;14.512;2023-12-14T01:55:04;96936.81;;;6.16;68.42
75039;BME280;63609;49.992;14.512;2023-12-14T01:57:31;96938.13;;;6.12;69.10
75039;BME280;63609;49.992;14.512;2023-12-14T01:59:57;96945.09;;;6.31;68.17
75039;BME280;63609;49.992;14.512;2023-12-14T02:02:24;96945.63;;;6.34;68.47
75039;BME280;63609;49.992;14.512;2023-12-14T02:04:52;96941.63;;;6.30;68.25
75039;BME280;63609;49.992;14.512;2023-12-14T02:07:19;96938.19;;;6.20;68.46
75039;BME280;63609;49.992;14.512;2023-12-14T02:09:45;96953.72;;;6.33;68.09
75039;BME280;63609;49.992;14.512;2023-12-14T02:12:12;96959.50;;;6.28;68.54
75039;BME280;63609;49.992;14.512;2023-12-14T02:14:39;96951.69;;;6.27;68.59
75039;BME280;63609;49.992;14.512;2023-12-14T02:17:07;96964.91;;;5.91;70.14
75039;BME280;63609;49.992;14.512;2023-12-14T02:19:34;96968.94;;;5.31;72.81
75039;BME280;63609;49.992;14.512;2023-12-14T02:22:01;96966.84;;;5.62;72.23
75039;BME280;63609;49.992;14.512;2023-12-14T02:24:28;96973.25;;;6.14;70.08
75039;BME280;63609;49.992;14.512;2023-12-14T02:26:54;96977.66;;;5.41;72.52
75039;BME280;63609;49.992;14.512;2023-12-14T02:29:29;96978.53;;;5.69;71.64
75039;BME280;63609;49.992;14.512;2023-12-14T02:31:57;96984.97;;;6.12;69.85
75039;BME280;63609;49.992;14.512;2023-12-14T02:34:24;96982.09;;;6.23;69.21
75039;BME280;63609;49.992;14.512;2023-12-14T02:36:52;96979.97;;;5.91;70.17
75039;BME280;63609;49.992;14.512;2023-12-14T02:39:19;96982.94;;;6.05;70.00
75039;BME280;63609;49.992;14.512;2023-12-14T02:41:45;96977.63;;;6.05;70.02
75039;BME280;63609;49.992;14.512;2023-12-14T02:44:12;96985.69;;;5.86;70.87
75039;BME280;63609;49.992;14.512;2023-12-14T02:46:39;96985.75;;;5.76;71.49
75039;BME280;63609;49.992;14.512;2023-12-14T02:49:06;96990.50;;;6.00;70.24
75039;BME280;63609;49.992;14.512;2023-12-14T02:51:33;96983.53;;;6.17;69.40
75039;BME280;63609;49.992;14.512;2023-12-14T02:54:00;96996.50;;;6.38;68.79
75039;BME280;63609;49.992;14.512;2023-12-14T02:56:27;96985.47;;;6.25;69.15
75039;BME280;63609;49.992;14.512;2023-12-14T02:58:53;96991.34;;;6.19;69.63
75039;BME280;63609;49.992;14.512;2023-12-14T03:01:20;96988.56;;;6.38;68.97
75039;BME280;63609;49.992;14.512;2023-12-14T03:03:50;96989.38;;;6.21;68.98
75039;BME280;63609;49.992;14.512;2023-12-14T03:06:17;96990.31;;;6.29;68.89
75039;BME280;63609;49.992;14.512;2023-12-14T03:08:44;97003.75;;;6.18;69.29
75039;BME280;63609;49.992;14.512;2023-12-14T03:11:20;97002.88;;;6.27;68.59
75039;BME280;63609;49.992;14.512;2023-12-14T03:13:47;97009.31;;;6.43;67.92
75039;BME280;63609;49.992;14.512;2023-12-14T03:16:14;97013.78;;;6.42;67.36
75039;BME280;63609;49.992;14.512;2023-12-14T03:18:40;97021.44;;;6.45;68.17
75039;BME280;63609;49.992;14.512;2023-12-14T03:21:07;97020.69;;;6.35;68.61
75039;BME280;63609;49.992;14.512;2023-12-14T03:23:34;97023.81;;;6.21;68.85
75039;BME280;63609;49.992;14.512;2023-12-14T03:26:01;97023.81;;;6.03;69.50
75039;BME280;63609;49.992;14.512;2023-12-14T03:28:28;97023.94;;;6.29;68.89
75039;BME280;63609;49.992;14.512;2023-12-14T03:30:55;97026.13;;;6.33;68.26
75039;BME280;63609;49.992;14.512;2023-12-14T03:33:22;97029.56;;;5.71;70.31
75039;BME280;63609;49.992;14.512;2023-12-14T03:35:49;97032.59;;;5.66;70.75
75039;BME280;63609;49.992;14.512;2023-12-14T03:38:15;97037.50;;;5.61;71.07
75039;BME280;63609;49.992;14.512;2023-12-14T03:40:42;97041.13;;;5.60;71.28
75039;BME280;63609;49.992;14.512;2023-12-14T03:43:09;97032.22;;;5.52;71.67
75039;BME280;63609;49.992;14.512;2023-12-14T03:45:36;97034.44;;;5.56;71.05
75039;BME280;63609;49.992;14.512;2023-12-14T03:48:02;97036.34;;;5.36;71.85
75039;BME280;63609;49.992;14.512;2023-12-14T03:50:30;97034.47;;;5.46;71.75
75039;BME280;63609;49.992;14.512;2023-12-14T03:52:57;97033.97;;;5.33;72.04
75039;BME280;63609;49.992;14.512;2023-12-14T03:55:23;97050.47;;;5.08;73.24
75039;BME280;63609;49.992;14.512;2023-12-14T03:57:50;97050.28;;;5.19;73.20
75039;BME280;63609;49.992;14.512;2023-12-14T04:00:17;97038.19;;;5.73;70.23
75039;BME280;63609;49.992;14.512;2023-12-14T04:02:44;97047.41;;;5.96;69.21
75039;BME280;63609;49.992;14.512;2023-12-14T04:05:11;97045.16;;;6.01;69.21
75039;BME280;63609;49.992;14.512;2023-12-14T04:07:39;97045.09;;;6.11;68.49
75039;BME280;63609;49.992;14.512;2023-12-14T04:10:11;97052.28;;;6.01;68.85
75039;BME280;63609;49.992;14.512;2023-12-14T04:12:39;97058.72;;;5.89;69.10
75039;BME280;63609;49.992;14.512;2023-12-14T04:15:07;97059.84;;;5.96;69.18
75039;BME280;63609;49.992;14.512;2023-12-14T04:17:35;97063.94;;;6.08;68.16
75039;BME280;63609;49.992;14.512;2023-12-14T04:20:03;97063.94;;;5.81;68.77
75039;BME280;63609;49.992;14.512;2023-12-14T04:22:32;97065.44;;;5.93;68.49
75039;BME280;63609;49.992;14.512;2023-12-14T04:25:00;97070.22;;;5.70;69.35
75039;BME280;63609;49.992;14.512;2023-12-14T04:27:27;97068.06;;;5.46;70.30
75039;BME280;63609;49.992;14.512;2023-12-14T04:29:55;97076.41;;;5.61;69.36
75039;BME280;63609;49.992;14.512;2023-12-14T04:32:22;97080.81;;;5.79;68.80
75039;BME280;63609;49.992;14.512;2023-12-14T04:34:49;97082.94;;;5.57;69.12
75039;BME280;63609;49.992;14.512;2023-12-14T04:37:16;97087.44;;;5.46;70.22
75039;BME280;63609;49.992;14.512;2023-12-14T04:39:42;97096.69;;;5.04;72.38
75039;BME280;63609;49.992;14.512;2023-12-14T04:42:09;97098.78;;;4.71;73.88
75039;BME280;63609;49.992;14.512;2023-12-14T04:44:35;97109.34;;;4.81;74.16
75039;BME280;63609;49.992;14.512;2023-12-14T04:47:02;97105.88;;;4.61;75.27
75039;BME280;63609;49.992;14.512;2023-12-14T04:49:29;97115.56;;;4.32;76.40
75039;BME280;63609;49.992;14.512;2023-12-14T04:51:56;97116.00;;;4.37;75.26
75039;BME280;63609;49.992;14.512;2023-12-14T04:54:23;97121.41;;;4.45;75.92
75039;BME280;63609;49.992;14.512;2023-12-14T04:56:49;97120.88;;;4.41;75.93
75039;BME280;63609;49.992;14.512;2023-12-14T04:59:16;97123.31;;;4.23;76.71
75039;BME280;63609;49.992;14.512;2023-12-14T05:01:43;97126.63;;;4.66;74.93
75039;BME280;63609;49.992;14.512;2023-12-14T05:04:11;97130.50;;;4.62;75.20
75039;BME280;63609;49.992;14.512;2023-12-14T05:06:38;97142.84;;;4.42;75.54
75039;BME280;63609;49.992;14.512;2023-12-14T05:09:05;97146.25;;;4.23;76.34
75039;BME280;63609;49.992;14.512;2023-12-14T05:11:33;97148.88;;;4.13;76.30
75039;BME280;63609;49.992;14.512;2023-12-14T05:14:00;97144.09;;;3.98;77.34
75039;BME280;63609;49.992;14.512;2023-12-14T05:16:27;97156.53;;;4.26;76.12
75039;BME280;63609;49.992;14.512;2023-12-14T05:18:54;97156.91;;;4.52;75.30
75039;BME280;63609;49.992;14.512;2023-12-14T05:21:21;97166.34;;;4.35;75.14
75039;BME280;63609;49.992;14.512;2023-12-14T05:23:47;97166.75;;;4.31;75.39
75039;BME280;63609;49.992;14.512;2023-12-14T05:26:14;97164.41;;;4.07;75.67
75039;BME280;63609;49.992;14.512;2023-12-14T05:28:42;97173.91;;;4.19;75.54
75039;BME280;63609;49.992;14.512;2023-12-14T05:31:09;97179.81;;;4.32;74.71
75039;BME280;63609;49.992;14.512;2023-12-14T05:33:38;97180.25;;;4.37;74.83
75039;BME280;63609;49.992;14.512;2023-12-14T05:36:06;97170.94;;;4.43;73.53
75039;BME280;63609;49.992;14.512;2023-12-14T05:38:41;97184.53;;;4.29;75.06
75039;BME280;63609;49.992;14.512;2023-12-14T05:41:08;97182.25;;;3.93;75.84
75039;BME280;63609;49.992;14.512;2023-12-14T05:43:35;97185.31;;;3.89;76.26
75039;BME280;63609;49.992;14.512;2023-12-14T05:46:03;97196.25;;;3.84;76.40
75039;BME280;63609;49.992;14.512;2023-12-14T05:48:30;97199.72;;;4.36;74.69
75039;BME280;63609;49.992;14.512;2023-12-14T05:51:00;97200.38;;;4.29;74.48
75039;BME280;63609;49.992;14.512;2023-12-14T05:53:27;97196.94;;;4.47;73.21
75039;BME280;63609;49.992;14.512;2023-12-14T05:55:53;97206.16;;;4.53;73.16
75039;BME280;63609;49.992;14.512;2023-12-14T05:58:20;97210.41;;;4.84;72.04
75039;BME280;63609;49.992;14.512;2023-12-14T06:00:47;97213.94;;;4.54;72.77
75039;BME280;63609;49.992;14.512;2023-12-14T06:03:14;97221.25;;;4.72;72.80
75039;BME280;63609;49.992;14.512;2023-12-14T06:05:40;97225.63;;;4.52;73.12
75039;BME280;63609;49.992;14.512;2023-12-14T06:08:07;97233.47;;;4.63;72.26
75039;BME280;63609;49.992;14.512;2023-12-14T06:10:34;97228.50;;;4.39;73.34
75039;BME280;63609;49.992;14.512;2023-12-14T06:13:01;97236.41;;;4.30;73.39
75039;BME280;63609;49.992;14.512;2023-12-14T06:15:28;97238.69;;;4.53;72.71
75039;BME280;63609;49.992;14.512;2023-12-14T06:17:54;97251.06;;;4.43;73.00
75039;BME280;63609;49.992;14.512;2023-12-14T06:20:21;97254.53;;;4.84;71.51
75039;BME280;63609;49.992;14.512;2023-12-14T06:22:50;97264.47;;;5.11;70.51
75039;BME280;63609;49.992;14.512;2023-12-14T06:25:16;97265.34;;;4.71;71.42
75039;BME280;63609;49.992;14.512;2023-12-14T06:27:43;97274.00;;;4.43;72.74
75039;BME280;63609;49.992;14.512;2023-12-14T06:30:11;97276.06;;;4.39;72.71
75039;BME280;63609;49.992;14.512;2023-12-14T06:32:38;97274.00;;;4.83;71.17
75039;BME280;63609;49.992;14.512;2023-12-14T06:35:06;97278.41;;;5.13;70.12
75039;BME280;63609;49.992;14.512;2023-12-14T06:37:33;97283.03;;;4.80;70.95
75039;BME280;63609;49.992;14.512;2023-12-14T06:40:00;97288.91;;;4.84;70.50
75039;BME280;63609;49.992;14.512;2023-12-14T06:42:27;97296.13;;;4.82;70.56
75039;BME280;63609;49.992;14.512;2023-12-14T06:44:55;97297.03;;;5.02;69.89
75039;BME280;63609;49.992;14.512;2023-12-14T06:47:22;97288.81;;;5.05;69.55
75039;BME280;63609;49.992;14.512;2023-12-14T06:49:49;97307.06;;;4.98;69.78
75039;BME280;63609;49.992;14.512;2023-12-14T06:52:16;97306.22;;;4.98;70.08
75039;BME280;63609;49.992;14.512;2023-12-14T06:54:43;97313.31;;;4.97;70.20
75039;BME280;63609;49.992;14.512;2023-12-14T06:57:10;97313.06;;;5.20;68.97
75039;BME280;63609;49.992;14.512;2023-12-14T06:59:37;97314.34;;;5.25;68.40
75039;BME280;63609;49.992;14.512;2023-12-14T07:02:03;97319.88;;;5.12;68.40
75039;BME280;63609;49.992;14.512;2023-12-14T07:04:30;97327.53;;;5.06;69.10
75039;BME280;63609;49.992;14.512;2023-12-14T07:06:57;97327.47;;;4.86;69.05
75039;BME280;63609;49.992;14.512;2023-12-14T07:09:25;97329.22;;;4.67;70.07
75039;BME280;63609;49.992;14.512;2023-12-14T07:11:52;97332.47;;;4.90;69.89
75039;BME280;63609;49.992;14.512;2023-12-14T07:14:19;97345.50;;;5.12;68.78
75039;BME280;63609;49.992;14.512;2023-12-14T07:16:49;97340.19;;;5.02;69.43
75039;BME280;63609;49.992;14.512;2023-12-14T07:19:16;97348.19;;;4.81;69.78
75039;BME280;63609;49.992;14.512;2023-12-14T07:21:43;97345.50;;;4.72;70.56
75039;BME280;63609;49.992;14.512;2023-12-14T07:24:10;97344.13;;;4.77;70.84
75039;BME280;63609;49.992;14.512;2023-12-14T07:26:36;97355.31;;;4.91;70.06
75039;BME280;63609;49.992;14.512;2023-12-14T07:29:03;97361.94;;;5.06;70.00
75039;BME280;63609;49.992;14.512;2023-12-14T07:31:30;97365.72;;;5.23;69.49
75039;BME280;63609;49.992;14.512;2023-12-14T07:33:56;97368.91;;;5.07;70.04
75039;BME280;63609;49.992;14.512;2023-12-14T07:36:23;97364.22;;;4.90;70.58
75039;BME280;63609;49.992;14.512;2023-12-14T07:38:50;97366.81;;;5.10;69.47
75039;BME280;63609;49.992;14.512;2023-12-14T07:41:21;97378.28;;;4.90;70.69
75039;BME280;63609;49.992;14.512;2023-12-14T07:43:53;97384.28;;;4.62;72.03
75039;BME280;63609;49.992;14.512;2023-12-14T07:46:20;97378.81;;;4.12;73.75
75039;BME280;63609;49.992;14.512;2023-12-14T07:48:47;97386.09;;;3.87;75.08
75039;BME280;63609;49.992;14.512;2023-12-14T07:51:14;97391.50;;;3.86;75.67
75039;BME280;63609;49.992;14.512;2023-12-14T07:53:41;97400.47;;;4.47;73.44
75039;BME280;63609;49.992;14.512;2023-12-14T07:56:09;97398.22;;;4.94;71.30
75039;BME280;63609;49.992;14.512;2023-12-14T07:58:36;97399.50;;;5.00;70.52
75039;BME280;63609;49.992;14.512;2023-12-14T08:01:03;97402.34;;;5.17;69.59
75039;BME280;63609;49.992;14.512;2023-12-14T08:03:30;97404.84;;;5.19;69.86
75039;BME280;63609;49.992;14.512;2023-12-14T08:05:57;97407.38;;;4.90;70.63
75039;BME280;63609;49.992;14.512;2023-12-14T08:08:25;97408.34;;;4.89;71.18
75039;BME280;63609;49.992;14.512;2023-12-14T08:10:52;97415.00;;;5.14;70.99
75039;BME280;63609;49.992;14.512;2023-12-14T08:13:19;97410.38;;;5.06;70.36
75039;BME280;63609;49.992;14.512;2023-12-14T08:15:46;97417.34;;;4.56;72.04
75039;BME280;63609;49.992;14.512;2023-12-14T08:18:13;97425.13;;;4.78;72.45
75039;BME280;63609;49.992;14.512;2023-12-14T08:20:40;97429.50;;;4.89;71.60
75039;BME280;63609;49.992;14.512;2023-12-14T08:23:06;97434.91;;;4.36;73.53
75039;BME280;63609;49.992;14.512;2023-12-14T08:25:33;97435.28;;;4.52;73.02
75039;BME280;63609;49.992;14.512;2023-12-14T08:28:00;97437.72;;;4.65;72.88
75039;BME280;63609;49.992;14.512;2023-12-14T08:30:31;97447.84;;;5.11;71.10
75039;BME280;63609;49.992;14.512;2023-12-14T08:32:58;97452.03;;;4.83;72.97
75039;BME280;63609;49.992;14.512;2023-12-14T08:35:25;97450.44;;;4.71;73.98
75039;BME280;63609;49.992;14.512;2023-12-14T08:37:51;97460.91;;;5.03;73.12
75039;BME280;63609;49.992;14.512;2023-12-14T08:40:18;97460.59;;;4.97;73.26
75039;BME280;63609;49.992;14.512;2023-12-14T08:42:46;97468.91;;;4.92;73.65
75039;BME280;63609;49.992;14.512;2023-12-14T08:45:13;97473.72;;;4.77;73.98
75039;BME280;63609;49.992;14.512;2023-12-14T08:47:41;97481.88;;;4.33;76.37
75039;BME280;63609;49.992;14.512;2023-12-14T08:50:09;97477.88;;;4.59;76.12
75039;BME280;63609;49.992;14.512;2023-12-14T08:52:36;97480.34;;;4.72;75.49
75039;BME280;63609;49.992;14.512;2023-12-14T08:55:04;97493.50;;;4.83;75.69
75039;BME280;63609;49.992;14.512;2023-12-14T08:57:31;97493.97;;;4.67;76.50
75039;BME280;63609;49.992;14.512;2023-12-14T08:59:58;97498.25;;;5.10;74.47
75039;BME280;63609;49.992;14.512;2023-12-14T09:02:25;97502.63;;;4.58;76.30
75039;BME280;63609;49.992;14.512;2023-12-14T09:04:52;97507.91;;;4.69;76.31
75039;BME280;63609;49.992;14.512;2023-12-14T09:07:19;97507.75;;;4.92;76.05
75039;BME280;63609;49.992;14.512;2023-12-14T09:09:46;97511.00;;;4.95;75.41
75039;BME280;63609;49.992;14.512;2023-12-14T09:12:13;97519.81;;;5.26;74.64
75039;BME280;63609;49.992;14.512;2023-12-14T09:14:44;97514.53;;;5.05;75.25
75039;BME280;63609;49.992;14.512;2023-12-14T09:17:12;97519.44;;;4.89;76.01
75039;BME280;63609;49.992;14.512;2023-12-14T09:19:39;97521.56;;;4.95;75.45
75039;BME280;63609;49.992;14.512;2023-12-14T09:22:05;97522.72;;;4.61;76.69
75039;BME280;63609;49.992;14.512;2023-12-14T09:24:32;97521.19;;;4.79;75.79
75039;BME280;63609;49.992;14.512;2023-12-14T09:26:59;97528.75;;;4.51;76.81
75039;BME280;63609;49.992;14.512;2023-12-14T09:29:26;97533.50;;;4.90;76.13
75039;BME280;63609;49.992;14.512;2023-12-14T09:31:52;97532.06;;;4.65;76.04
75039;BME280;63609;49.992;14.512;2023-12-14T09:34:19;97528.47;;;4.86;75.65
75039;BME280;63609;49.992;14.512;2023-12-14T09:36:46;97544.59;;;4.51;77.45
75039;BME280;63609;49.992;14.512;2023-12-14T09:39:13;97546.66;;;4.48;76.71
75039;BME280;63609;49.992;14.512;2023-12-14T09:41:41;97546.25;;;4.64;76.61
75039;BME280;63609;49.992;14.512;2023-12-14T09:44:08;97555.50;;;4.69;76.33
75039;BME280;63609;49.992;14.512;2023-12-14T09:46:37;97550.41;;;4.98;74.84
75039;BME280;63609;49.992;14.512;2023-12-14T09:49:05;97554.00;;;4.76;76.01
75039;BME280;63609;49.992;14.512;2023-12-14T09:51:34;97553.22;;;4.65;76.29
75039;BME280;63609;49.992;14.512;2023-12-14T09:54:02;97555.31;;;5.03;74.95
75039;BME280;63609;49.992;14.512;2023-12-14T09:56:29;97565.22;;;4.69;76.28
75039;BME280;63609;49.992;14.512;2023-12-14T09:58:57;97562.97;;;4.85;76.29
75039;BME280;63609;49.992;14.512;2023-12-14T10:01:27;97563.75;;;5.17;75.29
75039;BME280;63609;49.992;14.512;2023-12-14T10:04:10;97570.16;;;5.36;74.68
75039;BME280;63609;49.992;14.512;2023-12-14T10:06:39;97570.00;;;5.37;75.14
75039;BME280;63609;49.992;14.512;2023-12-14T10:09:06;97575.69;;;5.33;74.70
75039;BME280;63609;49.992;14.512;2023-12-14T10:11:36;97577.91;;;5.07;76.01
75039;BME280;63609;49.992;14.512;2023-12-14T10:14:17;97576.41;;;5.35;74.65
75039;BME280;63609;49.992;14.512;2023-12-14T10:16:45;97578.13;;;5.25;75.15
75039;BME280;63609;49.992;14.512;2023-12-14T10:19:12;97579.00;;;5.56;73.68
75039;BME280;63609;49.992;14.512;2023-12-14T10:21:39;97580.75;;;5.66;73.45
75039;BME280;63609;49.992;14.512;2023-12-14T10:24:07;97580.41;;;5.29;74.57
75039;BME280;63609;49.992;14.512;2023-12-14T10:26:35;97578.19;;;5.86;73.61
75039;BME280;63609;49.992;14.512;2023-12-14T10:29:02;97583.28;;;5.47;74.27
75039;BME280;63609;49.992;14.512;2023-12-14T10:31:31;97580.63;;;5.47;74.69
75039;BME280;63609;49.992;14.512;2023-12-14T10:33:58;97583.56;;;5.44;74.37
75039;BME280;63609;49.992;14.512;2023-12-14T10:36:25;97586.19;;;5.23;75.03
75039;BME280;63609;49.992;14.512;2023-12-14T10:38:53;97595.06;;;5.85;73.84
75039;BME280;63609;49.992;14.512;2023-12-14T10:41:24;97598.03;;;5.40;74.24
75039;BME280;63609;49.992;14.512;2023-12-14T10:43:56;97601.88;;;6.18;72.21
75039;BME280;63609;49.992;14.512;2023-12-14T10:46:47;97601.56;;;5.71;73.09
75039;BME280;63609;49.992;14.512;2023-12-14T10:49:15;97607.50;;;5.42;74.25
75039;BME280;63609;49.992;14.512;2023-12-14T10:51:42;97614.88;;;5.60;74.30
75039;BME280;63609;49.992;14.512;2023-12-14T10:54:13;97627.00;;;5.62;73.11
75039;BME280;63609;49.992;14.512;2023-12-14T10:56:41;97619.44;;;5.78;73.08
75039;BME280;63609;49.992;14.512;2023-12-14T10:59:08;97635.34;;;6.09;71.91
75039;BME280;63609;49.992;14.512;2023-12-14T11:01:35;97634.34;;;6.00;72.21
75039;BME280;63609;49.992;14.512;2023-12-14T11:04:06;97636.31;;;6.58;70.69
75039;BME280;63609;49.992;14.512;2023-12-14T11:06:37;97635.06;;;6.12;72.04
75039;BME280;63609;49.992;14.512;2023-12-14T11:09:06;97638.09;;;5.98;72.34
75039;BME280;63609;49.992;14.512;2023-12-14T11:14:16;97634.75;;;5.75;72.98
75039;BME280;63609;49.992;14.512;2023-12-14T11:16:48;97639.41;;;5.62;72.96
75039;BME280;63609;49.992;14.512;2023-12-14T11:22:08;97646.22;;;6.16;72.15
75039;BME280;63609;49.992;14.512;2023-12-14T11:24:36;97655.59;;;5.68;72.94
75039;BME280;63609;49.992;14.512;2023-12-14T11:27:06;97648.38;;;5.91;72.87
75039;BME280;63609;49.992;14.512;2023-12-14T11:29:36;97664.38;;;5.90;72.70
75039;BME280;63609;49.992;14.512;2023-12-14T11:32:06;97664.47;;;5.78;72.51
75039;BME280;63609;49.992;14.512;2023-12-14T11:34:33;97662.56;;;5.90;72.17
75039;BME280;63609;49.992;14.512;2023-12-14T11:37:00;97665.31;;;6.09;72.16
75039;BME280;63609;49.992;14.512;2023-12-14T11:39:30;97665.50;;;6.18;71.65
75039;BME280;63609;49.992;14.512;2023-12-14T11:42:02;97666.16;;;6.10;71.08
75039;BME280;63609;49.992;14.512;2023-12-14T11:44:29;97663.91;;;6.05;71.23
75039;BME280;63609;49.992;14.512;2023-12-14T11:46:57;97657.25;;;6.21;71.12
75039;BME280;63609;49.992;14.512;2023-12-14T11:49:25;97665.34;;;5.89;71.60
75039;BME280;63609;49.992;14.512;2023-12-14T11:51:56;97665.13;;;5.71;72.92
75039;BME280;63609;49.992;14.512;2023-12-14T11:54:23;97667.03;;;5.69;72.42
75039;BME280;63609;49.992;14.512;2023-12-14T11:56:50;97671.19;;;6.13;71.45
75039;BME280;63609;49.992;14.512;2023-12-14T11:59:18;97667.69;;;5.82;71.60
75039;BME280;63609;49.992;14.512;2023-12-14T12:01:56;97670.22;;;6.14;71.08
75039;BME280;63609;49.992;14.512;2023-12-14T12:04:24;97683.66;;;5.71;73.01
75039;BME280;63609;49.992;14.512;2023-12-14T12:06:59;97678.22;;;5.93;72.20
75039;BME280;63609;49.992;14.512;2023-12-14T12:12:05;97678.94;;;6.85;69.45
75039;BME280;63609;49.992;14.512;2023-12-14T12:14:33;97680.72;;;6.56;70.40
75039;BME280;63609;49.992;14.512;2023-12-14T12:17:00;97683.47;;;6.54;70.02
75039;BME280;63609;49.992;14.512;2023-12-14T12:19:26;97688.22;;;6.51;69.91
75039;BME280;63609;49.992;14.512;2023-12-14T12:21:53;97691.38;;;6.85;69.00
75039;BME280;63609;49.992;14.512;2023-12-14T12:24:20;97686.75;;;6.87;67.86
75039;BME280;63609;49.992;14.512;2023-12-14T12:26:53;97683.88;;;6.09;69.33
75039;BME280;63609;49.992;14.512;2023-12-14T12:29:21;97699.69;;;6.21;68.57
75039;BME280;63609;49.992;14.512;2023-12-14T12:31:48;97690.28;;;6.37;67.36
75039;BME280;63609;49.992;14.512;2023-12-14T12:34:15;97695.94;;;5.93;68.94
75039;BME280;63609;49.992;14.512;2023-12-14T12:36:42;97702.72;;;6.16;67.87
75039;BME280;63609;49.992;14.512;2023-12-14T12:39:09;97706.88;;;6.39;66.88
75039;BME280;63609;49.992;14.512;2023-12-14T12:41:36;97695.81;;;5.94;67.23
75039;BME280;63609;49.992;14.512;2023-12-14T12:44:07;97704.69;;;6.14;67.54
75039;BME280;63609;49.992;14.512;2023-12-14T12:46:35;97714.66;;;6.01;67.09
75039;BME280;63609;49.992;14.512;2023-12-14T12:49:02;97716.06;;;5.42;68.63
75039;BME280;63609;49.992;14.512;2023-12-14T12:51:31;97712.75;;;6.13;67.43
75039;BME280;63609;49.992;14.512;2023-12-14T12:53:59;97719.81;;;6.02;67.09
75039;BME280;63609;49.992;14.512;2023-12-14T12:56:38;97720.56;;;6.45;66.35
75039;BME280;63609;49.992;14.512;2023-12-14T12:59:06;97732.44;;;6.40;65.95
75039;BME280;63609;49.992;14.512;2023-12-14T13:01:35;97732.44;;;6.50;65.53
75039;BME280;63609;49.992;14.512;2023-12-14T13:04:02;97731.81;;;6.27;65.90
75039;BME280;63609;49.992;14.512;2023-12-14T13:06:31;97739.09;;;6.04;66.36
75039;BME280;63609;49.992;14.512;2023-12-14T13:08:58;97743.81;;;5.80;67.16
75039;BME280;63609;49.992;14.512;2023-12-14T13:11:24;97741.34;;;5.88;67.23
75039;BME280;63609;49.992;14.512;2023-12-14T13:13:52;97752.41;;;5.72;67.78